Schnellkupplungen für Hochdruck-Hydraulik, Edelstahl-Reihe bis 15.000 PSI

Adapter bis 15k PSI, NPT auf MP (bis 15k PSI) in Edelstahl

Industriestandardadapter, NPT auf MP (bis 15k PSI). Kompakte Bauformen aus NACE-zertifiziertem Edelstahl AISI 316L / EN1.4404 für maximale Lebensdauer. Vollständige technische Zeichnungen und empfohlene Drehmomente stehen zum Download bereit. Anwendungen: Adapter für Prüfstände, Diagnose-Druckmessungen und Systemprüfungen in Fluidtechnik-Anwendungen. Mit NPT ausgestattete Hebewerkzeuge und Schläuche mit MP-Anschlüssen sowie für Hydraulikanwendung im Bauwesen.


Anwendungen: Labor, Schläuche mit MP-Anschlüssen,Adapter für Prüfstände

Artikelnummer Anschluss 1 Anschluss 2 Max. Betriebsdruck Empfohlenes Drehmoment (Nm)
19 950 1954199501954 1/4" NPT 1/4" MP 103.4 MPa conn.1: 29 conn.2: 27
19 950 1955199501955 3/8" NPT 1/4" MP 103.4 MPa conn.1: 34 conn.2: 27
19 950 1956199501956 1/4" NPT 3/8" MP 103.4 MPa conn.1: 29 conn.2: 41
19 950 1957199501957 3/8" NPT 3/8" MP 103.4 MPa conn.1: 34 conn.2: 41
19 950 1958199501958 1/2" NPT 3/8" MP 103.4 MPa conn.1: 61 conn.2: 41
19 950 1959199501959 1/4" NPT 9/16" NPT 103.4 MPa conn.1: 29 conn.2: 75
19 950 1960199501960 3/8" NPT 9/16" NPT 103.4 MPa conn.1: 34 conn.2: 75
19 950 1961199501961 1/2" NPT 9/16" NPT 103.4 MPa conn.1: 61 conn.2: 75
19 950 1962199501962 1" NPT 9/16" MP 103.4 MPa conn.1: 163 conn.2: 75
19 950 1963199501963 1/4" NPT 3/8" MP 103.4 MPa conn.1: 29 conn.2: 41
19 950 1964199501964 3/8" NPT 3/8" MP 103.4 MPa conn.1: 34 conn.2: 41
19 950 1965199501965 1/2" NPT 3/8" MP 103.4 MPa conn.1: 61 conn.2: 41
19 950 1966199501966 1/4" NPT 9/16" MP 103.4 MPa conn.1: 29 conn.2: 75
19 950 1967199501967 3/8" NPT 9/16" MP 103.4 MPa conn.1: 34 conn.2: 75
19 950 1968199501968 1/2" NPT 9/16" MP 103.4 MPa conn.1: 61 conn.2: 75
19 950 1969199501969 1" NPT 9/16" MP 103.4 MPa conn.1: 163 conn.2: 75
19 950 1970199501970 1/8" NPT 9/16" MP 103.4 MPa conn.1: 23 conn.2: 75
19 950 1972199501972 1/4" NPT 1/4" MP 103.4 MPa conn.1: 29 conn.2: 27
19 950 1973199501973 1/4" NPT 3/8" MP 103.4 MPa conn.1: 29 conn.2: 41
19 950 1974199501974 1/4" NPT 9/16" MP 103.4 MPa conn.1: 29 conn.2: 75
19 950 1975199501975 3/8" NPT 9/16" MP 103.4 MPa conn.1: 34 conn.2: 75
19 950 1976199501976 1/2" NPT 9/16" MP 103.4 MPa conn.1: 61 conn.2: 75
19 950 1977199501977 1/2" NPT 3/4" MP 103.4 MPa conn.1: 61 conn.2: 123
19 950 2279199502279 3/4" NPT 3/4" MP 103.4 MPa conn.1: 102 conn.2: 123
19 950 1978199501978 1/2" NPT 1" MP 103.4 MPa conn.1: 61 conn.2: 203
19 950 1979199501979 3/4" NPT 1" MP 103.4 MPa conn.1: 102 conn.2: 203
19 950 1980199501980 1" NPT 1" MP 103.4 MPa conn.1: 163 conn.2: 203
Bei Fragen zu Verfügbarkeit und Preis wenden Sie sich an einen autorisierten CEJN-Händler. Weitere Anschlüsse und Dichtungsmaterial auf Anfrage. Einige Artikelnummern können Mindestbestellmengen unterliegen. Änderungen ohne vorherige Ankündigung vorbehalten. Die Gewindeanschlüsse sind gemäß ISO-Standards aufgeführt. Alle Abmessungen sind in mm angegeben.
Technische Daten
Material: Säurebeständig, NACE-zertifiziert, Edelstahl 316L / EN1.4404 kaltgezogen.

Verfügbare Unterlagen

Bitte füllen Sie das Formular aus, um Zugang zu den Downloads zu erhalten. Ihre Angaben werden ausschließlich für den internen Gebrauch verwendet und werden nicht an Dritte weitergegeben oder veröffentlicht.